KRYY/RYY METAR and TAF weather

Enter ICAO airport designator
Station Type Date Time Source
KRYY METAR 2019/05/25 15:50 UTC NOAA

KRYY 251550Z 30009KT 260V320 10SM CLR 31/20 A3022 RMK AO2 SLP953 T03060200


Station Type Date Time Source
KRYY Decoded METAR 2019/05/25 15:50 UTC NOAA

Marietta, Cobb County-McCollum Field Airport, GA, United States (KRYY) 34-00-47N 084-35-55W
May 25, 2019 - 11:50 AM EDT / 2019.05.25 1550 UTC
Wind: from the WNW (300 degrees) at 10 MPH (9 KT) (direction variable):0
Visibility: 10 mile(s):0
Sky conditions: clear
Temperature: 87.1 F (30.6 C)
Dew Point: 68.0 F (20.0 C)
Relative Humidity: 53%
Pressure (altimeter): 30.22 in. Hg (1023 hPa)
ob: KRYY 251550Z 30009KT 260V320 10SM CLR 31/20 A3022 RMK AO2 SLP953 T03060200
cycle: 16

Station Type Date Time Source
KRYY TAF 2019/05/25 12:22 UTC NOAA

TAF KRYY 251120Z 2512/2612 31003KT P6SM SKC
FM251500 28005KT P6SM FEW060
FM260100 29002KT P6SM SKC

Example: see airport list